Flight Track Log - Related Links

Times and Time Zones

All times are in EDT time to prevent confusion due to time zone crossing. See the N70AG flight status page for this flight to view local times or setup timezone preferences in your user account.

Time Position Orientation Groundspeed Altitude Reporting Facility
EDT Latitude Longitude Course Direction KTS MPH feet Rate Location/Type
Sun 03:37:46 PM 35.0942 -79.0494 185° South 366 421 10,100  Level Washington Center
Sun 03:38:47 PM 34.9983 -79.0478 179° South 355 409 12,000 2,213 Climbing Washington Center
Sun 03:39:00 PM 35.1556 -80.3720 266° West  Level FlightAware Approximate
Sun 03:39:48 PM 34.9022 -79.0514 182° South 348 400 14,600  Level Washington Center
Sun 03:40:00 PM 35.1416 -80.5256 260° West  Level FlightAware Approximate
Sun 03:40:46 PM 34.8103 -79.0500 179° South 353 406 17,200  Level Washington Center
Sun 03:41:00 PM 35.1292 -80.6790 260° West  Level FlightAware Approximate
Sun 03:42:00 PM 34.6520 -79.0333 180° South  Level FlightAware Approximate
Sun 03:42:27 PM 34.6186 -79.0528 180° South 371 427 43,000  Level Jacksonville Center
Sun 03:43:27 PM 34.5103 -79.0553 181° South 382 440 23,800 -9,500 Descending Jacksonville Center
Sun 03:44:27 PM 34.4022 -79.0675 185° South 387 445 24,000 1,000 Climbing Jacksonville Center
Sun 03:45:27 PM 34.3019 -79.1322 208° Southwest 388 447 25,800 1,800 Climbing Jacksonville Center
Sun 03:46:27 PM 34.2408 -79.2503 238° Southwest 388 447 27,600 2,050 Climbing Jacksonville Center
Sun 03:47:27 PM 34.2322 -79.3939 266° West 388 447 29,900 2,250 Climbing Jacksonville Center
Sun 03:48:27 PM 34.2358 -79.5219 272° West 395 455 32,100 2,150 Climbing Jacksonville Center
Sun 03:49:27 PM 34.2458 -79.6622 275° West 419 482 34,200 2,100 Climbing Jacksonville Center
Sun 03:50:27 PM 34.2889 -79.8014 291° West 426 490 36,300 1,400 Climbing Jacksonville Center
Sun 03:51:27 PM 34.3358 -79.9328 293° West 431 496 37,000 800 Climbing Jacksonville Center
Sun 03:52:27 PM 34.3869 -80.0744 294° West 447 514 37,900 1,338 Climbing Jacksonville Center
Sun 03:54:04 PM 34.4681 -80.3125 293° West 451 519 40,500 1,452 Climbing Atlanta Center
Sun 03:55:04 PM 34.5161 -80.4514 293° West 448 516 41,700 1,150 Climbing Atlanta Center
Sun 03:56:04 PM 34.5639 -80.5856 293° West 448 516 42,800 650 Climbing Atlanta Center
Sun 03:57:04 PM 34.6114 -80.7250 293° West 448 516 43,000 100 Climbing Atlanta Center
Sun 03:58:04 PM 34.6633 -80.8669 294° West 455 524 43,000  Level Atlanta Center
Sun 03:59:04 PM 34.7128 -81.0117 293° West 466 536 43,000  Level Atlanta Center
Sun 04:01:04 PM 34.8111 -81.2939 293° West 471 542 43,000  Level Atlanta Center
Sun 04:02:04 PM 34.8625 -81.4442 293° West 479 551 43,000  Level Atlanta Center
Sun 04:03:04 PM 34.9136 -81.5894 293° West 479 551 43,000  Level Atlanta Center
Sun 04:04:04 PM 34.9664 -81.7400 293° West 479 551 43,000  Level Atlanta Center
Sun 04:05:04 PM 35.0217 -81.9058 292° West 479 551 43,000  Level Atlanta Center
Sun 04:06:04 PM 35.0514 -82.0597 283° West 469 540 43,000  Level Atlanta Center
Sun 04:07:04 PM 35.0725 -82.2167 279° West 469 540 43,000  Level Atlanta Center
Sun 04:08:04 PM 35.0911 -82.3483 280° West 460 529 43,000  Level Atlanta Center
Sun 04:09:04 PM 35.1119 -82.5078 279° West 466 536 43,000  Level Atlanta Center
Sun 04:10:04 PM 35.1325 -82.6622 279° West 466 536 43,000  Level Atlanta Center
Sun 04:11:04 PM 35.1511 -82.8219 278° West 466 536 43,000  Level Atlanta Center
Sun 04:12:04 PM 35.1692 -82.9742 278° West 466 536 43,000  Level Atlanta Center
Sun 04:13:04 PM 35.1892 -83.1289 279° West 466 536 43,000  Level Atlanta Center
Sun 04:14:04 PM 35.2111 -83.2811 280° West 466 536 43,000  Level Atlanta Center
Sun 04:15:04 PM 35.2306 -83.4414 278° West 466 536 43,000  Level Atlanta Center
Sun 04:16:04 PM 35.2481 -83.5936 278° West 466 536 43,000  Level Atlanta Center
Sun 04:17:04 PM 35.2672 -83.7514 279° West 466 536 43,000  Level Atlanta Center
Sun 04:18:04 PM 35.2842 -83.9064 278° West 466 536 43,000  Level Atlanta Center
Sun 04:19:04 PM 35.3031 -84.0617 279° West 466 536 43,000  Level Atlanta Center
Sun 04:20:04 PM 35.3239 -84.2219 279° West 466 536 43,000  Level Atlanta Center
Sun 04:21:04 PM 35.3403 -84.3800 277° West 466 536 43,000  Level Atlanta Center
Sun 04:22:04 PM 35.3583 -84.5378 278° West 466 536 43,000  Level Atlanta Center
Sun 04:23:04 PM 35.3764 -84.6933 278° West 466 536 43,000  Level Atlanta Center
Sun 04:24:04 PM 35.3942 -84.8667 277° West 466 536 43,000  Level Atlanta Center
Sun 04:25:38 PM 35.4219 -85.1086 278° West 455 524 43,000  Level Memphis Center
Sun 04:26:38 PM 35.4389 -85.2631 278° West 461 531 43,000  Level Memphis Center
Sun 04:27:38 PM 35.4556 -85.4200 277° West 461 531 43,000  Level Memphis Center
Sun 04:28:38 PM 35.4719 -85.5744 277° West 461 531 43,000  Level Memphis Center
Sun 04:29:38 PM 35.4883 -85.7292 277° West 461 531 43,000  Level Memphis Center
Sun 04:30:38 PM 35.5044 -85.8811 277° West 461 531 43,000  Level Memphis Center
Sun 04:31:38 PM 35.5183 -86.0386 276° West 461 531 43,000  Level Memphis Center
Sun 04:32:38 PM 35.5381 -86.1933 279° West 461 531 43,000  Level Memphis Center
Sun 04:33:38 PM 35.5511 -86.3328 277° West 461 531 43,000  Level Memphis Center
Sun 04:34:38 PM 35.5664 -86.4903 277° West 466 536 43,000  Level Memphis Center
Sun 04:35:38 PM 35.5903 -86.6500 280° West 472 543 43,000  Level Memphis Center
Sun 04:36:38 PM 35.6139 -86.8175 280° West 487 560 43,000  Level Memphis Center
Sun 04:37:38 PM 35.6331 -86.9803 278° West 487 560 43,000  Level Memphis Center
Sun 04:38:38 PM 35.6586 -87.1581 280° West 482 555 43,000  Level Memphis Center
Sun 04:39:38 PM 35.6794 -87.3233 279° West 487 560 43,000  Level Memphis Center
Sun 04:40:38 PM 35.7019 -87.4861 280° West 487 560 43,000  Level Memphis Center
Sun 04:41:38 PM 35.7225 -87.6517 279° West 492 566 43,000  Level Memphis Center
Sun 04:42:38 PM 35.7425 -87.8122 279° West 492 566 43,000  Level Memphis Center
Sun 04:43:38 PM 35.7644 -87.9778 279° West 492 566 43,000  Level Memphis Center
Sun 04:44:38 PM 35.7819 -88.1256 278° West 487 560 43,000  Level Memphis Center
Sun 04:45:38 PM 35.8056 -88.2836 280° West 480 552 43,000  Level Memphis Center
Sun 04:46:38 PM 35.8267 -88.4419 279° West 480 552 43,000  Level Memphis Center
Sun 04:47:38 PM 35.8458 -88.6028 278° West 480 552 43,000  Level Memphis Center
Sun 04:48:38 PM 35.8647 -88.7639 278° West 480 552 43,000  Level Memphis Center
Sun 04:49:38 PM 35.8833 -88.9275 278° West 485 558 43,000  Level Memphis Center
Sun 04:50:38 PM 35.9019 -89.0886 278° West 485 558 43,000  Level Memphis Center
Sun 04:51:38 PM 35.9222 -89.2547 279° West 485 558 43,000  Level Memphis Center
Sun 04:52:38 PM 35.9381 -89.4186 277° West 485 558 43,000  Level Memphis Center
Sun 04:53:38 PM 35.9603 -89.5981 279° West 485 558 43,000  Level Memphis Center
Sun 04:54:38 PM 35.9778 -89.7619 278° West 485 558 43,000  Level Memphis Center
Sun 04:56:00 PM 36.0018 -89.9748 278° West  Level FlightAware Approximate
Sun 04:56:38 PM 36.0144 -90.0875 278° West 485 558 43,000  Level Memphis Center
Sun 04:57:38 PM 36.0314 -90.2517 277° West 485 558 43,000  Level Memphis Center
Sun 04:58:38 PM 36.0503 -90.4083 279° West 485 558 43,000  Level Memphis Center
Sun 04:59:38 PM 36.0667 -90.5675 277° West 477 549 43,000  Level Memphis Center
Sun 05:00:38 PM 36.0831 -90.7319 277° West 477 549 43,000  Level Memphis Center
Sun 05:01:38 PM 36.0992 -90.8939 277° West 482 555 43,000  Level Memphis Center
Sun 05:02:38 PM 36.1108 -91.0583 275° West 482 555 43,000  Level Memphis Center
Sun 05:03:38 PM 36.1181 -91.2203 273° West 482 555 43,000  Level Memphis Center
Sun 05:04:38 PM 36.1189 -91.3797 270° West 476 548 43,000  Level Memphis Center
Sun 05:05:38 PM 36.1281 -91.5417 274° West 476 548 43,000  Level Memphis Center
Sun 05:06:38 PM 36.1325 -91.7036 272° West 476 548 43,000  Level Memphis Center
Sun 05:07:38 PM 36.1350 -91.8656 271° West 476 548 43,000  Level Memphis Center
Sun 05:08:38 PM 36.1369 -92.0275 271° West 476 548 43,000  Level Memphis Center
Sun 05:09:38 PM 36.1497 -92.1742 276° West 476 548 43,000  Level Memphis Center
Sun 05:10:38 PM 36.1556 -92.3339 273° West 476 548 43,000  Level Memphis Center
Sun 05:11:38 PM 36.1592 -92.4958 272° West 476 548 43,000  Level Memphis Center
Sun 05:12:38 PM 36.1625 -92.6553 272° West 476 548 43,000  Level Memphis Center
Sun 05:13:38 PM 36.1656 -92.8200 271° West 476 548 43,000  Level Memphis Center
Sun 05:14:38 PM 36.1706 -92.9819 272° West 481 554 43,000  Level Memphis Center
Sun 05:15:38 PM 36.1733 -93.1414 271° West 474 545 43,000  Level Memphis Center
Sun 05:16:38 PM 36.1761 -93.3036 271° West 474 545 43,000  Level Memphis Center
Sun 05:17:38 PM 36.1783 -93.4606 271° West 474 545 43,000  Level Memphis Center
Sun 05:18:38 PM 36.1808 -93.6150 271° West 463 533 43,000  Level Memphis Center
Sun 05:19:38 PM 36.1803 -93.7844 270° West 458 527 43,000  Level Memphis Center
Sun 05:20:38 PM 36.1811 -93.9106 271° West 458 527 43,000  Level Memphis Center
Sun 05:21:38 PM 36.1822 -94.0828 271° West 458 527 43,000  Level Memphis Center
Sun 05:24:05 PM 36.1911 -94.4742 272° West 451 519 43,000  Level Kansas City Center
Sun 05:25:07 PM 36.1939 -94.6306 271° West 453 521 43,000  Level Kansas City Center
Sun 05:26:08 PM 36.1942 -94.7869 270° West 454 522 43,000  Level Kansas City Center
Sun 05:27:10 PM 36.1947 -94.9433 270° West 453 521 43,000  Level Kansas City Center
Sun 05:28:12 PM 36.1958 -95.1022 271° West 445 512 43,000  Level Kansas City Center
Sun 05:29:14 PM 36.1947 -95.2511 270° West 436 502 43,000  Level Kansas City Center
Sun 05:30:16 PM 36.1944 -95.4033 270° West 441 507 43,000  Level Kansas City Center
Sun 05:31:18 PM 36.1956 -95.5589 271° West 447 514 43,000  Level Kansas City Center
Sun 05:32:20 PM 36.1956 -95.7436 270° West 449 517 43,000  Level Kansas City Center
Sun 05:33:22 PM 36.1753 -95.9061 261° West 456 525 43,000  Level Kansas City Center
Sun 05:34:24 PM 36.1497 -96.0603 258° West 455 524 43,000  Level Kansas City Center
Sun 05:35:26 PM 36.1244 -96.2133 258° West 454 522 43,000  Level Kansas City Center
Sun 05:36:28 PM 36.0981 -96.3672 258° West 456 525 43,000  Level Kansas City Center
Sun 05:37:30 PM 36.0722 -96.5197 258° West 453 521 43,000  Level Kansas City Center
Sun 05:38:32 PM 36.0433 -96.6917 258° West 454 522 43,000  Level Kansas City Center
Sun 05:39:34 PM 36.0164 -96.8411 257° West 450 518 43,000  Level Kansas City Center
Sun 05:40:36 PM 35.9894 -96.9925 258° West 452 520 43,000  Level Kansas City Center
Sun 05:41:38 PM 35.9639 -97.1431 258° West 453 521 43,000  Level Kansas City Center
Sun 05:42:40 PM 35.9372 -97.2936 258° West 452 520 43,000  Level Kansas City Center
Sun 05:43:42 PM 35.9042 -97.4731 257° West 452 520 43,000  Level Kansas City Center
Sun 05:44:44 PM 35.8775 -97.6222 258° West 451 519 43,000  Level Kansas City Center
Sun 05:45:23 PM 35.8603 -97.7131 257° West 467 537 43,000  Level Fort Worth Center
Sun 05:46:23 PM 35.8286 -97.8744 256° West 455 524 43,000  Level Fort Worth Center
Sun 05:47:23 PM 35.8031 -98.0225 258° West 448 516 43,000  Level Fort Worth Center
Sun 05:48:23 PM 35.7856 -98.1708 262° West 448 516 43,000  Level Fort Worth Center
Sun 05:49:23 PM 35.7636 -98.3217 260° West 448 516 43,000  Level Fort Worth Center
Sun 05:49:54 PM 35.7586 -98.3781 264° West 447 514 43,000  Level Kansas City Center
Sun 05:50:56 PM 35.7342 -98.5614 261° West 450 518 43,000  Level Kansas City Center
Sun 05:51:58 PM 35.7164 -98.7156 262° West 452 520 43,000  Level Kansas City Center
Sun 05:53:00 PM 35.7008 -98.8689 263° West 449 517 43,000  Level Kansas City Center
Sun 05:54:02 PM 35.6842 -99.0242 263° West 450 518 43,000  Level Kansas City Center
Sun 05:55:04 PM 35.6678 -99.1792 263° West 451 519 43,000  Level Kansas City Center
Sun 05:56:05 PM 35.6511 -99.3342 263° West 452 520 43,000  Level Kansas City Center
Sun 05:58:08 PM 35.6183 -99.6428 263° West 452 520 43,000  Level Albuquerque Center
Sun 05:59:09 PM 35.6003 -99.7992 262° West 457 526 43,000  Level Albuquerque Center
Sun 06:00:11 PM 35.5836 -99.9531 262° West 455 524 43,000  Level Albuquerque Center
Sun 06:02:14 PM 35.5494 -100.2653 262° West 460 529 43,000  Level Albuquerque Center
Sun 06:03:16 PM 35.5378 -100.4547 266° West 479 551 43,000  Level Albuquerque Center
Sun 06:04:18 PM 35.5083 -100.6003 256° West 447 514 43,000  Level Albuquerque Center
Sun 06:05:19 PM 35.4919 -100.7356 262° West 449 517 43,000  Level Albuquerque Center
Sun 06:06:21 PM 35.4703 -100.9172 262° West 450 518 43,000  Level Albuquerque Center
Sun 06:07:23 PM 35.4511 -101.0689 261° West 451 519 43,000  Level Albuquerque Center
Sun 06:08:24 PM 35.4328 -101.2197 262° West 450 518 43,000  Level Albuquerque Center
Sun 06:09:26 PM 35.4156 -101.3625 262° West 453 521 43,000  Level Albuquerque Center
Sun 06:10:28 PM 35.3953 -101.5164 261° West 456 525 43,000  Level Albuquerque Center
Sun 06:11:29 PM 35.3719 -101.7025 261° West 455 524 43,000  Level Albuquerque Center
Sun 06:12:31 PM 35.3511 -101.8556 261° West 453 521 43,000  Level Albuquerque Center
Sun 06:13:33 PM 35.3322 -102.0047 261° West 459 528 43,000  Level Albuquerque Center
Sun 06:14:35 PM 35.3122 -102.1583 261° West 461 531 43,000  Level Albuquerque Center
Sun 06:15:36 PM 35.2917 -102.3094 261° West 455 524 43,000  Level Albuquerque Center
Sun 06:16:38 PM 35.2714 -102.4614 261° West 455 524 43,000  Level Albuquerque Center
Sun 06:17:40 PM 35.2456 -102.6458 260° West 459 528 43,000  Level Albuquerque Center
Sun 06:18:42 PM 35.2247 -102.7983 261° West 457 526 43,000  Level Albuquerque Center
Sun 06:19:43 PM 35.2036 -102.9506 260° West 455 524 43,000  Level Albuquerque Center
Sun 06:20:45 PM 35.1831 -103.0911 260° West 453 521 43,000  Level Albuquerque Center
Sun 06:21:47 PM 35.1586 -103.2731 261° West 458 527 43,000  Level Albuquerque Center
Sun 06:22:48 PM 35.1356 -103.4272 260° West 458 527 43,000  Level Albuquerque Center
Sun 06:23:50 PM 35.1144 -103.5794 260° West 453 521 43,000  Level Albuquerque Center
Sun 06:24:52 PM 35.0919 -103.7314 260° West 451 519 43,000  Level Albuquerque Center
Sun 06:25:53 PM 35.0683 -103.8869 260° West 456 525 43,000  Level Albuquerque Center
Sun 06:26:55 PM 35.0433 -104.0447 259° West 463 533 43,000  Level Albuquerque Center
Sun 06:27:57 PM 35.0186 -104.2058 259° West 470 541 43,000  Level Albuquerque Center
Sun 06:28:58 PM 34.9942 -104.3664 260° West 471 542 43,000  Level Albuquerque Center
Sun 06:30:00 PM 34.9711 -104.5236 260° West 467 537 43,000  Level Albuquerque Center
Sun 06:31:00 PM 34.9312 -104.6575 260° West  Level FlightAware Approximate
Sun 06:32:03 PM 34.9233 -104.8394 260° West 469 540 43,000  Level Albuquerque Center
Sun 06:33:05 PM 34.8981 -104.9972 259° West 470 541 43,000 98 Level Albuquerque Center
Sun 06:34:06 PM 34.8736 -105.1506 259° West 462 532 43,200 439 Climbing Albuquerque Center
Sun 06:35:08 PM 34.8494 -105.3058 259° West 461 531 43,900 732 Climbing Albuquerque Center
Sun 06:36:09 PM 34.8203 -105.4875 259° West 463 533 44,700 732 Climbing Albuquerque Center
Sun 06:37:11 PM 34.7956 -105.6400 259° West 459 528 45,400 629 Climbing Albuquerque Center
Sun 06:38:13 PM 34.7708 -105.7939 259° West 458 527 46,000 537 Climbing Albuquerque Center
Sun 06:39:14 PM 34.7444 -105.9458 258° West 457 526 46,500 488 Climbing Albuquerque Center
Sun 06:40:16 PM 34.7200 -106.0992 259° West 458 527 47,000 162 Climbing Albuquerque Center
Sun 06:42:19 PM 34.6664 -106.4125 258° West 462 532 47,000  Level Albuquerque Center
Sun 06:43:20 PM 34.6394 -106.5689 258° West 466 536 47,000  Level Albuquerque Center
Sun 06:44:22 PM 34.6117 -106.7256 258° West 470 541 47,000  Level Albuquerque Center
Sun 06:45:23 PM 34.5847 -106.8833 258° West 473 544 47,000  Level Albuquerque Center
Sun 06:46:24 PM 34.5581 -107.0397 258° West 474 545 47,000  Level Albuquerque Center
Sun 06:47:26 PM 34.5303 -107.1958 258° West 471 542 47,000  Level Albuquerque Center
Sun 06:48:27 PM 34.5031 -107.3508 258° West 469 540 47,000  Level Albuquerque Center
Sun 06:49:29 PM 34.4758 -107.5061 258° West 469 540 47,000  Level Albuquerque Center
Sun 06:50:30 PM 34.4483 -107.6594 258° West 467 537 47,000  Level Albuquerque Center
Sun 06:51:32 PM 34.4200 -107.8156 258° West 470 541 47,000  Level Albuquerque Center
Sun 06:52:33 PM 34.3922 -107.9711 258° West 473 544 47,000  Level Albuquerque Center
Sun 06:53:34 PM 34.3569 -108.1578 257° West 474 545 47,000  Level Albuquerque Center
Sun 06:54:36 PM 34.3286 -108.3156 258° West 476 548 47,000  Level Albuquerque Center
Sun 06:56:38 PM 34.2689 -108.6322 257° West 474 545 47,000  Level Albuquerque Center
Sun 06:57:40 PM 34.2408 -108.7853 258° West 474 545 47,000  Level Albuquerque Center
Sun 06:58:41 PM 34.2117 -108.9339 257° West 467 537 47,000  Level Albuquerque Center
Sun 06:59:43 PM 34.1828 -109.0822 257° West 462 532 47,000  Level Albuquerque Center
Sun 07:00:44 PM 34.1536 -109.2328 257° West 463 533 47,000  Level Albuquerque Center
Sun 07:01:45 PM 34.1189 -109.4122 257° West 464 534 47,000  Level Albuquerque Center
Sun 07:02:47 PM 34.0886 -109.5608 256° West 464 534 47,000  Level Albuquerque Center
Sun 07:03:48 PM 34.0603 -109.7067 257° West 465 535 47,000  Level Albuquerque Center
Sun 07:04:49 PM 34.0261 -109.8778 256° West 467 537 47,000  Level Albuquerque Center
Sun 07:05:51 PM 33.9992 -110.0128 256° West 467 537 47,000  Level Albuquerque Center
Sun 07:06:52 PM 33.9667 -110.1658 256° West 474 545 47,000  Level Albuquerque Center
Sun 07:07:54 PM 33.9297 -110.3464 256° West 471 542 47,000  Level Albuquerque Center
Sun 07:08:55 PM 33.9006 -110.4928 257° West 466 536 47,000  Level Albuquerque Center
Sun 07:09:56 PM 33.8686 -110.6442 256° West 467 537 47,000  Level Albuquerque Center
Sun 07:10:58 PM 33.8381 -110.7950 256° West 466 536 47,000  Level Albuquerque Center
Sun 07:11:59 PM 33.8061 -110.9467 256° West 466 536 47,000  Level Albuquerque Center
Sun 07:13:00 PM 33.7750 -111.0958 256° West 462 532 47,000  Level Albuquerque Center
Sun 07:14:02 PM 33.7425 -111.2458 255° West 463 533 47,000  Level Albuquerque Center
Sun 07:15:03 PM 33.7103 -111.3969 256° West 464 534 47,000  Level Albuquerque Center
Sun 07:16:04 PM 33.6781 -111.5469 256° West 462 532 47,000  Level Albuquerque Center
Sun 07:17:06 PM 33.6450 -111.6981 255° West 464 534 47,000  Level Albuquerque Center
Sun 07:18:07 PM 33.6044 -111.8811 255° West 467 537 47,000  Level Albuquerque Center
Sun 07:19:08 PM 33.5714 -112.0319 255° West 466 536 47,000  Level Albuquerque Center
Sun 07:20:10 PM 33.5378 -112.1833 255° West 468 539 47,000  Level Albuquerque Center
Sun 07:21:11 PM 33.5047 -112.3364 256° West 473 544 47,000  Level Albuquerque Center
Sun 07:22:13 PM 33.4706 -112.4872 255° West 469 540 47,000  Level Albuquerque Center
Sun 07:23:14 PM 33.4353 -112.6483 255° West 471 542 47,000  Level Albuquerque Center
Sun 07:24:15 PM 33.4000 -112.7989 254° West 472 543 47,000  Level Albuquerque Center
Sun 07:25:17 PM 33.3658 -112.9494 255° West 472 543 47,000 -49 Level Albuquerque Center
Sun 07:26:18 PM 33.3308 -113.1028 255° West 478 550 46,900  Descending Albuquerque Center
Sun 07:27:20 PM 33.2958 -113.2536 255° West 476 548 47,000 49 Climbing Albuquerque Center
Sun 07:28:21 PM 33.2603 -113.4056 254° West 477 549 47,000  Level Albuquerque Center
Sun 07:29:22 PM 33.2181 -113.5872 255° West 476 548 47,000  Level Albuquerque Center
Sun 07:30:24 PM 33.1828 -113.7394 255° West 477 549 47,000 -49 Level Albuquerque Center
Sun 07:31:25 PM 33.1461 -113.8922 254° West 480 552 46,900  Descending Albuquerque Center
Sun 07:32:27 PM 33.1097 -114.0447 254° West 480 552 47,000 -488 Climbing Albuquerque Center
Sun 07:33:28 PM 33.0744 -114.1975 255° West 479 551 45,900 -1,279 Descending Albuquerque Center
Sun 07:34:29 PM 33.0533 -114.3572 261° West 487 560 44,400 -1,453 Descending Albuquerque Center
Sun 07:35:36 PM 33.0250 -114.5256 259° West 488 562 42,800 -1,953 Descending Los Angeles Center
Sun 07:36:38 PM 33.0058 -114.7175 263° West 485 558 40,200 -2,488 Descending Los Angeles Center
Sun 07:37:39 PM 32.9828 -114.8808 260° West 496 571 37,700 -2,390 Descending Los Angeles Center
Sun 07:38:41 PM 32.9589 -115.0456 260° West 505 581 35,300 -2,419 Descending Los Angeles Center
Sun 07:39:43 PM 32.9531 -115.2142 268° West 512 589 32,700 -2,468 Descending Los Angeles Center
Sun 07:40:45 PM 32.9500 -115.3858 269° West 520 598 30,200 -2,419 Descending Los Angeles Center
Sun 07:41:47 PM 32.9469 -115.5556 269° West 513 590 27,700 -2,758 Descending Los Angeles Center
Sun 07:42:49 PM 32.9453 -115.7444 269° West 480 552 24,500 -2,952 Descending Los Angeles Center
Sun 07:43:51 PM 32.9428 -115.8958 269° West 462 532 21,600 -2,855 Descending Los Angeles Center
Sun 07:44:53 PM 32.9411 -116.0436 269° West 451 519 18,600 -2,976 Descending Los Angeles Center
Sun 07:45:54 PM 32.9297 -116.1822 264° West 425 489 15,500 -2,439 Descending Los Angeles Center
Sun 07:46:56 PM 32.9072 -116.3036 258° West 402 463 13,600 -1,403 Descending Los Angeles Center
Sun 07:47:58 PM 32.8203 -116.4136 227° Southwest 388 447 12,600 -1,500 Descending Los Angeles Center
Sun 07:49:00 PM 32.7717 -116.5044 238° Southwest 363 418 10,500 -1,887 Descending Los Angeles Center
Sun 07:50:02 PM 32.7506 -116.6106 257° West 337 388 8,700 -1,839 Descending Los Angeles Center
Sun 07:51:04 PM 32.7314 -116.7097 257° West 316 364 6,700 -1,839 Descending Los Angeles Center
Sun 07:52:06 PM 32.7214 -116.8047 263° West 298 343 4,900 -823 Descending Los Angeles Center
Sun 07:53:08 PM 32.7164 -116.9128 267° West 278 320 5,000 -532 Climbing Los Angeles Center
Sun 07:54:10 PM 32.7111 -117.0006 266° West 270 311 3,800 -1,220 Descending Los Angeles Center
Sun 07:55:11 PM 32.7067 -117.0728 266° West 233 268 2,500 -1,268 Descending Los Angeles Center
Sun 07:56:13 PM 32.7189 -117.1314 284° West 195 224 1,200 -1,065 Descending Los Angeles Center
Sun 07:57:15 PM 32.7297 -117.1767 286° West 149 171 300 -871 Descending Los Angeles Center
Sun 07:59:00 PM 32.7333 -117.1833 281° West  Level FlightAware Approximate

Login

Don't have an account? Register now (free) for customized features, flight alerts, and more!